Time;durP1;ratioP1;P1;durP2;ratioP2;P2;SDS_P1;SDS_P2;PMS_P1;PMS_P2;Temp;Humidity;BMP_temperature;BMP_pressure;BME280_temperature;BME280_humidity;BME280_pressure;Samples;Min_cycle;Max_cycle;Signal;HPM_P1;HPM_P2
2023/07/30 00:00:06;;;;;;;;;;;17.20;99.90;;;;;;5046595;28;19920;-61
2023/07/30 00:02:32;;;;;;;;;;;17.20;99.90;;;;;;5045790;28;19975;-60
2023/07/30 00:04:59;;;;;;;;;;;17.20;99.90;;;;;;5038513;28;19982;-60
2023/07/30 00:07:26;;;;;;;;;;;17.20;99.90;;;;;;5031353;28;19925;-60
2023/07/30 00:09:53;;;;;;;;;;;17.10;99.90;;;;;;5024103;28;20430;-60
2023/07/30 00:12:19;;;;;;;;;;;17.10;99.90;;;;;;5039692;28;19982;-60
2023/07/30 00:14:46;;;;;;;;;;;17.10;99.90;;;;;;5046069;28;19927;-60
2023/07/30 00:17:13;;;;;;;;;;;17.10;99.90;;;;;;5048610;28;19929;-60
2023/07/30 00:19:40;;;;;;;;;;;17.10;99.90;;;;;;5046104;28;20004;-60
2023/07/30 00:22:06;;;;;;;;;;;17.10;99.90;;;;;;5028493;28;19921;-60
2023/07/30 00:24:33;;;;;;;;;;;17.00;99.90;;;;;;5031931;28;19921;-60
2023/07/30 00:27:00;;;;;;;;;;;17.10;99.90;;;;;;5045085;28;19975;-61
2023/07/30 00:29:26;;;;;;;;;;;17.10;99.90;;;;;;5045044;28;20372;-60
2023/07/30 00:31:53;;;;;;;;;;;17.10;99.90;;;;;;5032485;28;19924;-61
2023/07/30 00:34:20;;;;;;;;;;;17.10;99.90;;;;;;5034185;28;19921;-60
2023/07/30 00:36:46;;;;;;;;;;;17.10;99.90;;;;;;5045739;28;20186;-60
2023/07/30 00:39:13;;;;;;;;;;;17.10;99.90;;;;;;5040893;28;19944;-60
2023/07/30 00:41:40;;;;;;;;;;;17.10;99.90;;;;;;5035812;28;19920;-60
2023/07/30 00:44:07;;;;;;;;;;;17.10;99.90;;;;;;5032368;28;19921;-60
2023/07/30 00:46:33;;;;;;;;;;;17.20;99.90;;;;;;5036206;28;19928;-60
2023/07/30 00:49:00;;;;;;;;;;;17.20;99.90;;;;;;5042152;28;19929;-60
2023/07/30 00:51:27;;;;;;;;;;;17.20;99.90;;;;;;5036864;28;19928;-61
2023/07/30 00:53:54;;;;;;;;;;;17.20;99.90;;;;;;5029730;28;19921;-60
2023/07/30 00:56:20;;;;;;;;;;;17.20;99.90;;;;;;5018734;28;19928;-60
2023/07/30 00:58:47;;;;;;;;;;;17.20;99.90;;;;;;5047509;28;20207;-60
2023/07/30 01:01:14;;;;;;;;;;;17.10;99.90;;;;;;5022491;28;19925;-60
2023/07/30 01:03:41;;;;;;;;;;;17.10;99.90;;;;;;5029401;28;19963;-60
2023/07/30 01:06:08;;;;;;;;;;;17.10;99.90;;;;;;5033325;28;19928;-60
2023/07/30 01:08:35;;;;;;;;;;;17.10;99.90;;;;;;5048405;28;20105;-59
2023/07/30 01:11:02;;;;;;;;;;;17.00;99.90;;;;;;5043354;28;19927;-61
2023/07/30 01:13:29;;;;;;;;;;;17.00;99.90;;;;;;5047737;28;19936;-60
2023/07/30 01:15:56;;;;;;;;;;;17.10;99.90;;;;;;5042903;28;19928;-60
2023/07/30 01:18:22;;;;;;;;;;;17.00;99.90;;;;;;5048455;28;20320;-60
2023/07/30 01:20:52;;;;;;;;;;;17.10;99.90;;;;;;5043072;28;19921;-60
2023/07/30 01:23:19;;;;;;;;;;;17.00;99.90;;;;;;5047746;28;19928;-60
2023/07/30 01:25:46;;;;;;;;;;;17.00;99.90;;;;;;5034095;28;19924;-59
2023/07/30 01:28:12;;;;;;;;;;;17.00;99.90;;;;;;5037126;28;19921;-60
2023/07/30 01:30:40;;;;;;;;;;;17.00;99.90;;;;;;4686726;28;10000209;-61
2023/07/30 01:33:07;;;;;;;;;;;17.00;99.90;;;;;;5035506;28;19931;-60
2023/07/30 01:35:34;;;;;;;;;;;16.90;99.90;;;;;;5044198;28;19925;-62
2023/07/30 01:38:02;;;;;;;;;;;17.00;99.90;;;;;;5038232;28;19920;-60
2023/07/30 01:40:28;;;;;;;;;;;16.90;99.90;;;;;;5054688;28;19921;-60
2023/07/30 01:42:55;;;;;;;;;;;16.90;99.90;;;;;;5034559;28;20372;-60
2023/07/30 01:45:22;;;;;;;;;;;16.90;99.90;;;;;;5046921;28;19924;-60
2023/07/30 01:47:49;;;;;;;;;;;16.90;99.90;;;;;;5040703;28;20004;-60
2023/07/30 01:50:15;;;;;;;;;;;16.80;99.90;;;;;;5043225;28;19921;-60
2023/07/30 01:52:42;;;;;;;;;;;16.80;99.90;;;;;;5037711;28;19928;-61
2023/07/30 01:55:09;;;;;;;;;;;16.70;99.90;;;;;;5051054;28;20383;-59
2023/07/30 01:57:36;;;;;;;;;;;16.70;99.90;;;;;;5046044;28;20001;-61
2023/07/30 02:00:03;;;;;;;;;;;16.70;99.90;;;;;;5043445;28;19971;-61
2023/07/30 02:02:30;;;;;;;;;;;16.70;99.90;;;;;;5042084;28;19921;-62
2023/07/30 02:04:56;;;;;;;;;;;16.70;99.90;;;;;;5046858;28;20398;-60
2023/07/30 02:07:23;;;;;;;;;;;16.70;99.90;;;;;;5045931;28;20363;-61
2023/07/30 02:09:50;;;;;;;;;;;16.60;99.90;;;;;;5044951;28;19925;-61
2023/07/30 02:12:17;;;;;;;;;;;16.70;99.90;;;;;;5046516;28;20213;-58
2023/07/30 02:14:43;;;;;;;;;;;16.60;99.90;;;;;;5040380;28;19924;-61
2023/07/30 02:17:10;;;;;;;;;;;16.60;99.90;;;;;;5036292;28;19920;-61
2023/07/30 02:19:37;;;;;;;;;;;16.70;99.90;;;;;;5050203;28;20264;-60
2023/07/30 02:22:04;;;;;;;;;;;16.60;99.90;;;;;;5048651;28;19932;-61
2023/07/30 02:24:30;;;;;;;;;;;16.60;99.90;;;;;;5045209;28;19924;-60
2023/07/30 02:26:57;;;;;;;;;;;16.60;99.90;;;;;;5049899;28;19921;-61
2023/07/30 02:29:25;;;;;;;;;;;16.60;99.90;;;;;;5039156;28;20026;-60
2023/07/30 02:31:51;;;;;;;;;;;16.60;99.90;;;;;;5050726;28;19921;-61
2023/07/30 02:34:18;;;;;;;;;;;16.60;99.90;;;;;;5045060;28;19924;-61
2023/07/30 02:36:45;;;;;;;;;;;16.60;99.90;;;;;;5050902;28;20121;-61
2023/07/30 02:39:12;;;;;;;;;;;16.50;99.90;;;;;;5046986;28;19921;-61
2023/07/30 02:41:38;;;;;;;;;;;16.60;99.90;;;;;;5050778;28;19928;-61
2023/07/30 02:44:05;;;;;;;;;;;16.60;99.90;;;;;;5040071;28;19921;-61
2023/07/30 02:46:32;;;;;;;;;;;16.60;99.90;;;;;;5032540;28;19975;-61
2023/07/30 02:48:59;;;;;;;;;;;16.70;99.90;;;;;;5039109;28;19928;-61
2023/07/30 02:51:26;;;;;;;;;;;16.70;99.90;;;;;;5050318;28;19932;-61
2023/07/30 02:53:53;;;;;;;;;;;16.70;99.90;;;;;;5044359;28;19921;-60
2023/07/30 02:56:20;;;;;;;;;;;16.60;99.90;;;;;;5033622;28;19921;-60
2023/07/30 02:58:46;;;;;;;;;;;16.60;99.90;;;;;;5034476;28;19924;-61
2023/07/30 03:01:13;;;;;;;;;;;16.60;99.90;;;;;;5050658;28;19921;-61
2023/07/30 03:03:40;;;;;;;;;;;16.60;99.90;;;;;;5047675;28;19943;-60
2023/07/30 03:06:06;;;;;;;;;;;16.60;99.90;;;;;;5037745;28;19932;-61
2023/07/30 03:08:35;;;;;;;;;;;16.60;99.90;;;;;;5033788;28;19921;-61
2023/07/30 03:11:02;;;;;;;;;;;16.70;99.90;;;;;;5040740;28;19963;-61
2023/07/30 03:13:29;;;;;;;;;;;16.70;99.90;;;;;;5031869;28;19929;-61
2023/07/30 03:15:56;;;;;;;;;;;16.70;99.90;;;;;;5045147;28;19921;-62
2023/07/30 03:18:23;;;;;;;;;;;16.70;99.90;;;;;;5050388;28;19920;-61
2023/07/30 03:20:49;;;;;;;;;;;16.60;99.90;;;;;;5045186;28;19924;-62
2023/07/30 03:23:16;;;;;;;;;;;16.70;99.90;;;;;;5030580;28;19929;-61
2023/07/30 03:25:43;;;;;;;;;;;16.70;99.90;;;;;;5039895;28;19928;-62
2023/07/30 03:28:09;;;;;;;;;;;16.60;99.90;;;;;;5049905;28;19928;-61
2023/07/30 03:30:36;;;;;;;;;;;16.60;99.90;;;;;;5047067;28;19921;-61
2023/07/30 03:33:03;;;;;;;;;;;16.70;99.90;;;;;;5033108;28;19939;-60
2023/07/30 03:35:30;;;;;;;;;;;16.60;99.90;;;;;;5034073;28;19921;-60
2023/07/30 03:37:57;;;;;;;;;;;16.60;99.90;;;;;;5044670;28;19921;-61
2023/07/30 03:40:23;;;;;;;;;;;16.60;99.90;;;;;;5046338;28;20289;-61
2023/07/30 03:42:50;;;;;;;;;;;16.50;99.90;;;;;;5037779;28;19928;-61
2023/07/30 03:45:17;;;;;;;;;;;16.40;99.90;;;;;;5035448;28;19920;-61
2023/07/30 03:47:44;;;;;;;;;;;16.40;99.90;;;;;;5039556;28;20542;-61
2023/07/30 03:50:11;;;;;;;;;;;16.40;99.90;;;;;;5045782;28;20383;-61
2023/07/30 03:52:37;;;;;;;;;;;16.40;99.90;;;;;;5039392;28;19921;-62
2023/07/30 03:55:04;;;;;;;;;;;16.40;99.90;;;;;;5030794;28;19936;-61
2023/07/30 03:57:31;;;;;;;;;;;16.30;99.90;;;;;;5038386;28;19932;-61
2023/07/30 03:59:59;;;;;;;;;;;16.30;99.90;;;;;;5048896;28;19920;-60
2023/07/30 04:02:26;;;;;;;;;;;16.30;99.90;;;;;;5041932;28;19982;-61
2023/07/30 04:04:53;;;;;;;;;;;16.20;99.90;;;;;;5028137;28;20043;-60
2023/07/30 04:07:19;;;;;;;;;;;16.20;99.90;;;;;;5045817;28;19920;-61
2023/07/30 04:09:46;;;;;;;;;;;16.10;99.90;;;;;;5048743;28;19924;-61
2023/07/30 04:12:13;;;;;;;;;;;16.20;99.90;;;;;;5041376;28;19927;-61
2023/07/30 04:14:40;;;;;;;;;;;16.10;99.90;;;;;;5045913;28;19927;-61
2023/07/30 04:17:06;;;;;;;;;;;16.00;99.90;;;;;;5043194;28;19924;-61
2023/07/30 04:19:33;;;;;;;;;;;16.00;99.90;;;;;;5033328;28;20296;-61
2023/07/30 04:22:00;;;;;;;;;;;15.90;99.90;;;;;;5038296;28;20404;-61
2023/07/30 04:24:26;;;;;;;;;;;16.00;99.90;;;;;;5042866;28;19924;-61
2023/07/30 04:26:53;;;;;;;;;;;16.00;99.90;;;;;;5038042;28;20380;-61
2023/07/30 04:29:20;;;;;;;;;;;15.90;99.90;;;;;;5037277;28;19928;-61
2023/07/30 04:31:47;;;;;;;;;;;15.90;99.90;;;;;;5040453;28;20449;-61
2023/07/30 04:34:14;;;;;;;;;;;15.90;99.90;;;;;;5038800;28;19925;-61
2023/07/30 04:36:41;;;;;;;;;;;15.80;99.90;;;;;;5044692;28;19924;-60
2023/07/30 04:39:08;;;;;;;;;;;15.80;99.90;;;;;;5040016;28;19964;-61
2023/07/30 04:41:35;;;;;;;;;;;15.80;99.90;;;;;;5038711;28;19932;-62
2023/07/30 04:44:03;;;;;;;;;;;15.80;99.90;;;;;;5045131;28;19921;-61
2023/07/30 04:46:30;;;;;;;;;;;15.70;99.90;;;;;;5047507;28;19928;-61
2023/07/30 04:48:57;;;;;;;;;;;15.70;99.90;;;;;;5040258;28;20358;-61
2023/07/30 04:51:24;;;;;;;;;;;15.70;99.90;;;;;;5037826;28;19924;-61
2023/07/30 04:53:50;;;;;;;;;;;15.70;99.90;;;;;;5035762;28;19925;-61
2023/07/30 04:56:17;;;;;;;;;;;15.70;99.90;;;;;;5048350;28;19921;-61
2023/07/30 04:58:44;;;;;;;;;;;15.70;99.90;;;;;;5042016;28;19920;-61
2023/07/30 05:01:10;;;;;;;;;;;15.70;99.90;;;;;;5038421;28;19920;-60
2023/07/30 05:03:37;;;;;;;;;;;15.60;99.90;;;;;;5038460;28;19924;-60
2023/07/30 05:06:04;;;;;;;;;;;15.70;99.90;;;;;;5026870;28;19920;-60
2023/07/30 05:08:31;;;;;;;;;;;15.70;99.90;;;;;;5042453;28;19975;-61
2023/07/30 05:10:58;;;;;;;;;;;15.70;99.90;;;;;;5040327;28;19995;-62
2023/07/30 05:13:24;;;;;;;;;;;15.70;99.90;;;;;;5042821;28;19928;-61
2023/07/30 05:15:51;;;;;;;;;;;15.60;99.90;;;;;;5039311;28;19928;-61
2023/07/30 05:18:18;;;;;;;;;;;15.60;99.90;;;;;;5042646;28;19927;-61
2023/07/30 05:20:47;;;;;;;;;;;15.60;99.90;;;;;;5042831;28;19967;-60
2023/07/30 05:23:14;;;;;;;;;;;15.70;99.90;;;;;;5044725;28;19925;-61
2023/07/30 05:25:41;;;;;;;;;;;15.70;99.90;;;;;;5035143;28;19987;-61
2023/07/30 05:28:08;;;;;;;;;;;15.60;99.90;;;;;;5045902;28;20365;-62
2023/07/30 05:30:35;;;;;;;;;;;15.70;99.90;;;;;;5048421;28;19928;-61
2023/07/30 05:33:01;;;;;;;;;;;15.70;99.90;;;;;;5047587;28;19944;-61
2023/07/30 05:35:28;;;;;;;;;;;15.70;99.90;;;;;;5039569;28;19932;-60
2023/07/30 05:37:59;;;;;;;;;;;15.70;99.90;;;;;;5047963;28;19928;-60
2023/07/30 05:40:25;;;;;;;;;;;15.80;99.90;;;;;;5033990;28;19925;-60
2023/07/30 05:42:52;;;;;;;;;;;15.90;99.90;;;;;;5047997;28;19974;-60
2023/07/30 05:45:19;;;;;;;;;;;16.00;99.90;;;;;;5036291;28;19921;-60
2023/07/30 05:47:45;;;;;;;;;;;16.10;99.90;;;;;;5028255;28;19927;-60
2023/07/30 05:50:12;;;;;;;;;;;16.10;99.90;;;;;;5038069;28;19920;-60
2023/07/30 05:52:39;;;;;;;;;;;16.20;99.90;;;;;;5047511;28;20402;-61
2023/07/30 05:55:06;;;;;;;;;;;16.20;99.90;;;;;;5040128;28;19921;-61
2023/07/30 05:57:32;;;;;;;;;;;16.20;99.90;;;;;;5030396;28;19925;-60
2023/07/30 05:59:59;;;;;;;;;;;16.20;99.90;;;;;;5033375;28;19929;-60
2023/07/30 06:02:26;;;;;;;;;;;16.20;99.90;;;;;;5047595;28;19928;-60
2023/07/30 06:04:53;;;;;;;;;;;16.20;99.90;;;;;;5044498;28;20416;-60
2023/07/30 06:07:19;;;;;;;;;;;16.20;99.90;;;;;;5032007;28;19944;-60
2023/07/30 06:09:46;;;;;;;;;;;16.20;99.90;;;;;;5030313;28;19928;-60
2023/07/30 06:12:13;;;;;;;;;;;16.20;99.90;;;;;;5045802;28;19927;-60
2023/07/30 06:14:39;;;;;;;;;;;16.20;99.90;;;;;;5045718;28;19921;-60
2023/07/30 06:17:06;;;;;;;;;;;16.20;99.90;;;;;;5041188;28;19936;-60
2023/07/30 06:19:34;;;;;;;;;;;16.20;99.90;;;;;;5046337;28;19924;-59
2023/07/30 06:22:00;;;;;;;;;;;16.20;99.90;;;;;;5040334;28;20390;-60
2023/07/30 06:24:27;;;;;;;;;;;16.30;99.90;;;;;;5026636;28;19954;-60
2023/07/30 06:26:54;;;;;;;;;;;16.40;99.90;;;;;;5041010;28;19931;-60
2023/07/30 06:29:20;;;;;;;;;;;16.40;99.90;;;;;;5047492;28;20632;-60
2023/07/30 06:31:47;;;;;;;;;;;16.60;99.90;;;;;;5044602;28;19982;-62
2023/07/30 06:34:14;;;;;;;;;;;16.60;99.90;;;;;;5049473;28;20429;-62
2023/07/30 06:36:40;;;;;;;;;;;16.60;99.90;;;;;;5038140;28;19929;-61
2023/07/30 06:39:07;;;;;;;;;;;16.60;99.90;;;;;;5046885;28;19927;-60
2023/07/30 06:41:34;;;;;;;;;;;16.60;99.90;;;;;;5047708;28;19924;-60
2023/07/30 06:44:01;;;;;;;;;;;16.60;99.90;;;;;;5041530;28;19928;-61
2023/07/30 06:46:27;;;;;;;;;;;16.70;99.90;;;;;;5054855;28;19999;-61
2023/07/30 06:48:54;;;;;;;;;;;16.80;99.90;;;;;;5041685;28;19921;-61
2023/07/30 06:51:23;;;;;;;;;;;16.80;99.90;;;;;;5044678;28;19971;-60
2023/07/30 06:53:50;;;;;;;;;;;16.80;99.90;;;;;;5040247;28;20228;-61
2023/07/30 06:56:17;;;;;;;;;;;16.80;99.90;;;;;;5047633;28;19925;-61
2023/07/30 06:58:43;;;;;;;;;;;16.80;99.90;;;;;;5050007;28;20420;-60
2023/07/30 07:01:10;;;;;;;;;;;16.90;99.90;;;;;;5048757;28;19928;-60
2023/07/30 07:03:37;;;;;;;;;;;16.90;99.90;;;;;;5048268;28;19960;-60
2023/07/30 07:06:04;;;;;;;;;;;16.90;99.90;;;;;;5049968;28;19943;-59
2023/07/30 07:08:31;;;;;;;;;;;17.00;99.90;;;;;;5036765;28;19928;-60
2023/07/30 07:10:58;;;;;;;;;;;17.10;99.90;;;;;;5050692;28;19924;-60
2023/07/30 07:13:25;;;;;;;;;;;17.10;99.90;;;;;;5036265;28;20315;-60
2023/07/30 07:15:52;;;;;;;;;;;17.20;99.90;;;;;;5047357;28;19982;-60
2023/07/30 07:18:19;;;;;;;;;;;17.20;99.90;;;;;;5043143;28;19924;-60
2023/07/30 07:20:45;;;;;;;;;;;17.30;99.90;;;;;;5032696;28;19921;-60
2023/07/30 07:23:12;;;;;;;;;;;17.30;99.90;;;;;;5036584;28;20367;-59
2023/07/30 07:25:39;;;;;;;;;;;17.20;99.90;;;;;;5045846;28;19972;-60
2023/07/30 07:28:06;;;;;;;;;;;17.30;99.90;;;;;;5043409;28;19920;-60
2023/07/30 07:30:35;;;;;;;;;;;17.30;99.90;;;;;;5050026;28;19920;-59
2023/07/30 07:33:02;;;;;;;;;;;17.30;99.90;;;;;;5046807;28;19925;-60
2023/07/30 07:35:28;;;;;;;;;;;17.30;99.90;;;;;;5050532;28;20020;-61
2023/07/30 07:37:55;;;;;;;;;;;17.40;99.90;;;;;;5047048;28;19921;-60
2023/07/30 07:40:22;;;;;;;;;;;17.40;99.90;;;;;;5039156;28;19920;-60
2023/07/30 07:42:49;;;;;;;;;;;17.50;99.90;;;;;;5046728;28;19924;-60
2023/07/30 07:45:16;;;;;;;;;;;17.60;99.90;;;;;;5038573;28;19943;-60
2023/07/30 07:47:44;;;;;;;;;;;17.70;99.90;;;;;;5047553;28;19921;-60
2023/07/30 07:50:11;;;;;;;;;;;17.70;99.90;;;;;;5041494;28;19951;-60
2023/07/30 07:52:37;;;;;;;;;;;17.60;99.90;;;;;;5039316;28;19924;-60
2023/07/30 07:55:04;;;;;;;;;;;17.60;99.90;;;;;;5036787;28;19921;-61
2023/07/30 07:57:32;;;;;;;;;;;17.70;99.90;;;;;;5049421;28;20007;-60
2023/07/30 07:59:58;;;;;;;;;;;17.70;99.90;;;;;;5043386;28;20028;-60
2023/07/30 08:02:25;;;;;;;;;;;17.80;99.90;;;;;;5029597;28;19927;-60
2023/07/30 08:04:52;;;;;;;;;;;17.90;99.90;;;;;;5041034;28;19952;-61
2023/07/30 08:07:19;;;;;;;;;;;18.00;99.90;;;;;;5039192;28;19928;-60
2023/07/30 08:09:46;;;;;;;;;;;18.00;99.90;;;;;;5039461;28;20572;-59
2023/07/30 08:12:14;;;;;;;;;;;18.00;99.90;;;;;;5038239;28;19925;-59
2023/07/30 08:14:40;;;;;;;;;;;18.20;99.90;;;;;;5036158;28;19936;-59
2023/07/30 08:17:07;;;;;;;;;;;18.20;99.90;;;;;;4692431;28;10000451;-59
2023/07/30 08:19:34;;;;;;;;;;;18.20;99.90;;;;;;5027886;28;19925;-60
2023/07/30 08:22:01;;;;;;;;;;;18.30;99.90;;;;;;5036357;28;20375;-59
2023/07/30 08:24:27;;;;;;;;;;;18.40;99.90;;;;;;5040171;28;20277;-59
2023/07/30 08:26:54;;;;;;;;;;;18.50;99.90;;;;;;5056385;28;19933;-56
2023/07/30 08:29:21;;;;;;;;;;;18.60;99.90;;;;;;5042079;28;19929;-55
2023/07/30 08:31:48;;;;;;;;;;;18.70;99.90;;;;;;5038471;28;19932;-55
2023/07/30 08:34:15;;;;;;;;;;;18.80;99.90;;;;;;5044471;28;19925;-56
2023/07/30 08:36:41;;;;;;;;;;;18.90;99.90;;;;;;5033283;28;19978;-56
2023/07/30 08:39:08;;;;;;;;;;;19.10;99.90;;;;;;5044525;28;19920;-58
2023/07/30 08:41:35;;;;;;;;;;;19.10;99.90;;;;;;5038177;28;19928;-58
2023/07/30 08:44:02;;;;;;;;;;;19.20;99.90;;;;;;5045295;28;20000;-59
2023/07/30 08:46:29;;;;;;;;;;;19.30;99.90;;;;;;5043845;28;20181;-59
2023/07/30 08:48:57;;;;;;;;;;;19.20;99.90;;;;;;5043730;28;20557;-59
2023/07/30 08:51:24;;;;;;;;;;;19.20;99.90;;;;;;5042618;28;20364;-60
2023/07/30 08:53:51;;;;;;;;;;;19.20;99.90;;;;;;5042750;28;20362;-60
2023/07/30 08:56:18;;;;;;;;;;;19.20;99.90;;;;;;5038821;28;19936;-55
2023/07/30 08:58:44;;;;;;;;;;;19.30;99.90;;;;;;5044252;28;19951;-55
2023/07/30 09:01:12;;;;;;;;;;;19.40;99.90;;;;;;5042034;28;19925;-54
2023/07/30 09:03:39;;;;;;;;;;;19.40;99.90;;;;;;5043287;28;20406;-55
2023/07/30 09:06:06;;;;;;;;;;;19.50;99.90;;;;;;5040205;28;19920;-56
2023/07/30 09:08:33;;;;;;;;;;;19.50;99.90;;;;;;5028538;28;19931;-58
2023/07/30 09:11:07;;;;;;;;;;;19.70;99.90;;;;;;5028185;28;19921;-55
2023/07/30 09:13:37;;;;;;;;;;;19.70;99.90;;;;;;5039420;28;19963;-56
2023/07/30 09:16:08;;;;;;;;;;;19.70;99.90;;;;;;5041558;28;19928;-58
2023/07/30 09:18:41;;;;;;;;;;;19.70;99.90;;;;;;5044883;28;19994;-57
2023/07/30 09:21:09;;;;;;;;;;;19.70;99.90;;;;;;5040416;28;20384;-52
2023/07/30 09:23:43;;;;;;;;;;;19.70;99.90;;;;;;5041081;28;19932;-56
2023/07/30 09:26:10;;;;;;;;;;;19.60;99.90;;;;;;5041735;28;20019;-52
2023/07/30 09:28:36;;;;;;;;;;;19.60;99.90;;;;;;5039343;28;20354;-54
2023/07/30 09:31:04;;;;;;;;;;;19.70;99.90;;;;;;5044124;28;19983;-53
2023/07/30 09:33:46;;;;;;;;;;;19.90;99.90;;;;;;5039329;28;19924;-53
2023/07/30 09:36:13;;;;;;;;;;;20.00;99.90;;;;;;5042390;28;19970;-53
2023/07/30 09:38:40;;;;;;;;;;;20.00;99.90;;;;;;5042613;28;20457;-56
2023/07/30 09:41:07;;;;;;;;;;;20.10;99.90;;;;;;5042429;28;19925;-54
2023/07/30 09:43:34;;;;;;;;;;;20.20;99.90;;;;;;5028026;28;19925;-54
2023/07/30 09:46:07;;;;;;;;;;;20.30;99.90;;;;;;5044237;28;20370;-56
2023/07/30 09:48:34;;;;;;;;;;;20.20;99.90;;;;;;5043064;28;20342;-56
2023/07/30 09:51:05;;;;;;;;;;;20.30;99.90;;;;;;5026001;28;20022;-57
2023/07/30 09:53:35;;;;;;;;;;;20.40;99.90;;;;;;5031361;28;20027;-57
2023/07/30 09:56:03;;;;;;;;;;;20.60;99.90;;;;;;5043539;28;19924;-59
2023/07/30 09:58:30;;;;;;;;;;;20.90;99.90;;;;;;5043694;28;19925;-59
2023/07/30 10:01:00;;;;;;;;;;;20.70;99.90;;;;;;5031200;28;19921;-57
2023/07/30 10:03:30;;;;;;;;;;;20.80;99.90;;;;;;5031848;28;19953;-56
2023/07/30 10:06:00;;;;;;;;;;;21.00;99.90;;;;;;5042383;28;19921;-57
2023/07/30 10:08:29;;;;;;;;;;;20.90;99.90;;;;;;5040928;28;20008;-57
2023/07/30 10:10:55;;;;;;;;;;;21.10;99.90;;;;;;5035575;28;19983;-58
2023/07/30 10:13:22;;;;;;;;;;;21.00;99.90;;;;;;5034728;28;19944;-58
2023/07/30 10:15:49;;;;;;;;;;;20.70;99.90;;;;;;5039712;28;19920;-57
2023/07/30 10:18:16;;;;;;;;;;;20.70;99.90;;;;;;5041790;28;19921;-57
2023/07/30 10:20:45;;;;;;;;;;;20.90;99.90;;;;;;5035907;28;20000;-59
2023/07/30 10:23:12;;;;;;;;;;;20.80;99.90;;;;;;5042560;28;19929;-57
2023/07/30 10:25:44;;;;;;;;;;;20.90;99.90;;;;;;5040102;28;19929;-58
2023/07/30 10:28:27;;;;;;;;;;;21.00;99.90;;;;;;5034878;28;20406;-57
2023/07/30 10:30:57;;;;;;;;;;;20.90;99.90;;;;;;5040158;28;19921;-57
2023/07/30 10:33:26;;;;;;;;;;;20.70;99.90;;;;;;5048032;28;19940;-57
2023/07/30 10:35:53;;;;;;;;;;;20.60;99.90;;;;;;5040545;28;19921;-57
2023/07/30 10:38:20;;;;;;;;;;;20.60;99.90;;;;;;5035278;28;20388;-57
2023/07/30 10:40:59;;;;;;;;;;;20.50;99.90;;;;;;5038583;28;19924;-58
2023/07/30 10:43:36;;;;;;;;;;;20.60;99.90;;;;;;5049239;28;19924;-57
2023/07/30 10:46:03;;;;;;;;;;;20.60;99.90;;;;;;5045706;28;20571;-56
2023/07/30 10:48:33;;;;;;;;;;;20.50;99.90;;;;;;5037578;28;20430;-57
2023/07/30 10:51:00;;;;;;;;;;;20.40;99.90;;;;;;5037589;28;20008;-57
2023/07/30 10:53:27;;;;;;;;;;;20.40;99.90;;;;;;5050201;28;20403;-58
2023/07/30 10:55:55;;;;;;;;;;;20.40;99.90;;;;;;5035993;28;19921;-57
2023/07/30 10:58:22;;;;;;;;;;;20.40;99.90;;;;;;5050391;28;20291;-55
2023/07/30 11:00:49;;;;;;;;;;;20.40;99.90;;;;;;5043369;28;19925;-56
2023/07/30 11:03:15;;;;;;;;;;;20.30;99.90;;;;;;5037484;28;19932;-59
2023/07/30 11:05:45;;;;;;;;;;;20.40;99.90;;;;;;5040199;28;19928;-56
2023/07/30 11:08:12;;;;;;;;;;;20.40;99.90;;;;;;5046901;28;20399;-57
2023/07/30 11:10:43;;;;;;;;;;;20.50;99.90;;;;;;5044073;28;19982;-58
2023/07/30 11:13:09;;;;;;;;;;;20.40;99.90;;;;;;5038700;28;19924;-53
2023/07/30 11:15:43;;;;;;;;;;;20.70;99.90;;;;;;5043028;28;19928;-57
2023/07/30 11:18:11;;;;;;;;;;;20.70;99.90;;;;;;5040085;28;19946;-56
2023/07/30 11:20:37;;;;;;;;;;;20.60;99.90;;;;;;5034503;28;20032;-58
2023/07/30 11:23:37;;;;;;;;;;;20.50;99.90;;;;;;5041424;28;20026;-59
2023/07/30 11:26:05;;;;;;;;;;;20.40;99.90;;;;;;5032308;28;19921;-53
2023/07/30 11:28:35;;;;;;;;;;;20.50;99.90;;;;;;5041050;28;19927;-56
2023/07/30 11:31:33;;;;;;;;;;;20.40;99.90;;;;;;5035723;28;19921;-57
2023/07/30 11:34:00;;;;;;;;;;;20.40;99.90;;;;;;5038874;28;20387;-57
2023/07/30 11:36:27;;;;;;;;;;;20.40;99.90;;;;;;5042067;28;19928;-58
2023/07/30 11:38:54;;;;;;;;;;;20.30;99.90;;;;;;5043594;28;19984;-60
2023/07/30 11:41:22;;;;;;;;;;;20.30;99.90;;;;;;5042347;28;19920;-60
2023/07/30 11:43:51;;;;;;;;;;;20.30;99.90;;;;;;5023912;28;20465;-60
2023/07/30 11:46:23;;;;;;;;;;;20.10;99.90;;;;;;4882739;28;10000028;-57
2023/07/30 11:48:51;;;;;;;;;;;20.00;99.90;;;;;;5038474;28;20047;-56
2023/07/30 11:51:18;;;;;;;;;;;19.80;99.90;;;;;;5032389;28;20315;-56
2023/07/30 11:53:52;;;;;;;;;;;19.70;99.90;;;;;;5047841;28;19990;-54
2023/07/30 11:56:19;;;;;;;;;;;19.70;99.90;;;;;;5046830;28;20355;-58
2023/07/30 11:58:47;;;;;;;;;;;19.70;99.90;;;;;;5038215;28;19921;-54
2023/07/30 12:01:14;;;;;;;;;;;19.60;99.90;;;;;;5046122;28;19974;-55
2023/07/30 12:03:41;;;;;;;;;;;19.40;99.90;;;;;;5049081;28;19979;-56
2023/07/30 12:06:11;;;;;;;;;;;19.30;99.90;;;;;;5047905;28;19928;-54
2023/07/30 12:08:37;;;;;;;;;;;19.10;99.90;;;;;;5039280;28;20043;-57
2023/07/30 12:11:05;;;;;;;;;;;19.10;99.90;;;;;;5048963;28;19920;-55
2023/07/30 12:13:31;;;;;;;;;;;19.10;99.90;;;;;;5042940;28;19920;-56
2023/07/30 12:15:58;;;;;;;;;;;19.10;99.90;;;;;;5049259;28;19920;-57
2023/07/30 12:18:25;;;;;;;;;;;19.20;99.90;;;;;;5039090;28;20345;-57
2023/07/30 12:20:52;;;;;;;;;;;19.30;99.90;;;;;;5032512;28;19925;-56
2023/07/30 12:23:19;;;;;;;;;;;19.30;99.90;;;;;;5042426;28;19925;-58
2023/07/30 12:25:46;;;;;;;;;;;19.40;99.90;;;;;;5048760;28;20012;-57
2023/07/30 12:28:13;;;;;;;;;;;19.40;99.90;;;;;;5046394;28;19920;-56
2023/07/30 12:30:40;;;;;;;;;;;19.40;99.90;;;;;;5048574;28;20289;-57
2023/07/30 12:33:06;;;;;;;;;;;19.40;99.90;;;;;;5042439;28;19935;-57
2023/07/30 12:35:33;;;;;;;;;;;19.60;99.90;;;;;;5040339;28;19921;-57
2023/07/30 12:38:00;;;;;;;;;;;19.60;99.90;;;;;;5042975;28;19929;-58
2023/07/30 12:40:29;;;;;;;;;;;19.60;99.90;;;;;;5048614;28;20312;-55
2023/07/30 12:42:56;;;;;;;;;;;19.50;99.90;;;;;;5044321;28;19921;-57
2023/07/30 12:45:23;;;;;;;;;;;19.30;99.90;;;;;;5055601;28;19928;-58
2023/07/30 12:47:49;;;;;;;;;;;19.30;99.90;;;;;;4750854;22;20016;-57
2023/07/30 12:50:16;;;;;;;;;;;19.30;99.90;;;;;;4971952;28;19975;-54
2023/07/30 12:52:43;;;;;;;;;;;19.50;99.90;;;;;;4988846;28;19921;-56
2023/07/30 12:55:10;;;;;;;;;;;19.70;99.90;;;;;;4992546;28;19921;-56
2023/07/30 12:57:37;;;;;;;;;;;19.70;99.90;;;;;;4988982;28;19926;-56
2023/07/30 13:00:04;;;;;;;;;;;19.60;99.90;;;;;;4988962;28;19929;-58
2023/07/30 13:02:34;;;;;;;;;;;19.60;99.90;;;;;;4990273;28;20347;-49
2023/07/30 13:05:01;;;;;;;;;;;19.60;99.90;;;;;;4989572;28;19973;-54
2023/07/30 13:07:28;;;;;;;;;;;19.60;99.90;;;;;;4989809;28;19921;-54
2023/07/30 13:10:04;;;;;;;;;;;19.60;99.90;;;;;;4990053;28;19944;-55
2023/07/30 13:12:31;;;;;;;;;;;19.50;99.90;;;;;;4990246;28;19925;-56
2023/07/30 13:14:58;;;;;;;;;;;19.60;99.90;;;;;;4989991;28;19980;-55
2023/07/30 13:17:25;;;;;;;;;;;19.60;99.90;;;;;;4990056;28;19921;-55
2023/07/30 13:19:52;;;;;;;;;;;19.60;99.90;;;;;;4989742;28;19930;-56
2023/07/30 13:22:19;;;;;;;;;;;19.60;99.90;;;;;;4990251;28;19921;-54
2023/07/30 13:24:45;;;;;;;;;;;19.60;99.90;;;;;;4989657;28;19930;-57
2023/07/30 13:27:12;;;;;;;;;;;19.60;99.90;;;;;;4989967;28;19928;-57
2023/07/30 13:29:39;;;;;;;;;;;19.60;99.90;;;;;;4988957;28;19989;-54
2023/07/30 13:32:06;;;;;;;;;;;19.60;99.90;;;;;;4989609;28;20361;-54
2023/07/30 13:34:33;;;;;;;;;;;19.60;99.90;;;;;;4989007;28;20280;-55
2023/07/30 13:37:00;;;;;;;;;;;19.70;99.90;;;;;;4989934;28;19926;-58
2023/07/30 13:39:26;;;;;;;;;;;19.80;99.90;;;;;;4989330;28;19925;-55
2023/07/30 13:41:53;;;;;;;;;;;19.80;99.90;;;;;;4989788;28;20482;-57
2023/07/30 13:44:20;;;;;;;;;;;19.80;99.90;;;;;;4993966;28;19929;-55
2023/07/30 13:46:47;;;;;;;;;;;19.80;99.90;;;;;;4993490;28;20365;-58
2023/07/30 13:49:14;;;;;;;;;;;19.90;99.90;;;;;;4993179;28;19921;-56
2023/07/30 13:51:40;;;;;;;;;;;19.90;99.90;;;;;;4992306;28;19992;-57
2023/07/30 13:54:07;;;;;;;;;;;19.90;99.90;;;;;;4992212;28;19944;-55
2023/07/30 13:56:34;;;;;;;;;;;19.90;99.90;;;;;;4992414;28;20032;-58
2023/07/30 13:59:01;;;;;;;;;;;19.70;99.90;;;;;;4992324;28;20050;-54
2023/07/30 14:01:28;;;;;;;;;;;19.70;99.90;;;;;;4991730;28;19921;-56
2023/07/30 14:03:55;;;;;;;;;;;19.70;99.90;;;;;;4991960;28;19922;-56
2023/07/30 14:06:22;;;;;;;;;;;19.80;99.90;;;;;;4991817;28;20396;-56
2023/07/30 14:08:49;;;;;;;;;;;20.00;99.90;;;;;;4992521;28;19952;-58
2023/07/30 14:11:16;;;;;;;;;;;20.10;99.90;;;;;;4991866;28;19922;-54
2023/07/30 14:13:42;;;;;;;;;;;20.00;99.90;;;;;;4992102;28;20162;-56
2023/07/30 14:16:10;;;;;;;;;;;20.00;99.90;;;;;;4991988;28;19969;-55